Terminal Aerodrome Forecast
Issued by NWS

Home | Current Version | Previous Version | Text Only | Print | Product List | Glossary On
Versions: 1 2 3 4 5 6 7 8 9 10 11 12 13 14 15 16 17 18 19 20 21 22 23 24 25 26 27 28 29 30 31
000
FTUS45 KTWC 052106 AAA
TAFOLS
TAF AMD
KOLS 052106Z 0521/0618 26012G20KT P6SM SCT080
     FM060200 22005KT P6SM FEW090
     FM060600 VRB04KT P6SM SCT200
     FM061600 17011G16KT P6SM FEW200=

USA.gov is the U.S. government's official web portal to all federal, state and local government web resources and services.